sensor_id;sensor_type;location;lat;lon;timestamp;P1;P2;P0
49778;PMS5003;36217;60.232;24.776;2022-08-01T00:01:15;5;3;
49778;PMS5003;36217;60.232;24.776;2022-08-01T00:03:42;4;4;
49778;PMS5003;36217;60.232;24.776;2022-08-01T00:06:09;5;5;
49778;PMS5003;36217;60.232;24.776;2022-08-01T00:08:36;4;4;
49778;PMS5003;36217;60.232;24.776;2022-08-01T00:11:03;5;5;
49778;PMS5003;36217;60.232;24.776;2022-08-01T00:13:30;5;5;
49778;PMS5003;36217;60.232;24.776;2022-08-01T00:15:57;4;4;
49778;PMS5003;36217;60.232;24.776;2022-08-01T00:18:28;4;4;
49778;PMS5003;36217;60.232;24.776;2022-08-01T00:20:55;6;4;
49778;PMS5003;36217;60.232;24.776;2022-08-01T00:23:22;3;3;
49778;PMS5003;36217;60.232;24.776;2022-08-01T00:25:49;5;5;
49778;PMS5003;36217;60.232;24.776;2022-08-01T00:28:16;4;4;
49778;PMS5003;36217;60.232;24.776;2022-08-01T00:30:43;6;6;
49778;PMS5003;36217;60.232;24.776;2022-08-01T00:33:10;3;3;
49778;PMS5003;36217;60.232;24.776;2022-08-01T00:35:37;5;5;
49778;PMS5003;36217;60.232;24.776;2022-08-01T00:38:03;5;5;
49778;PMS5003;36217;60.232;24.776;2022-08-01T00:40:30;6;4;
49778;PMS5003;36217;60.232;24.776;2022-08-01T00:42:57;3;3;
49778;PMS5003;36217;60.232;24.776;2022-08-01T00:45:24;3;3;
49778;PMS5003;36217;60.232;24.776;2022-08-01T00:47:51;3;3;
49778;PMS5003;36217;60.232;24.776;2022-08-01T00:50:23;6;6;
49778;PMS5003;36217;60.232;24.776;2022-08-01T00:52:50;5;5;
49778;PMS5003;36217;60.232;24.776;2022-08-01T00:55:16;6;5;
49778;PMS5003;36217;60.232;24.776;2022-08-01T00:57:44;5;5;
49778;PMS5003;36217;60.232;24.776;2022-08-01T01:00:12;6;6;
49778;PMS5003;36217;60.232;24.776;2022-08-01T01:02:40;5;5;
49778;PMS5003;36217;60.232;24.776;2022-08-01T01:05:07;6;6;
49778;PMS5003;36217;60.232;24.776;2022-08-01T01:07:35;5;5;
49778;PMS5003;36217;60.232;24.776;2022-08-01T01:10:12;6;6;
49778;PMS5003;36217;60.232;24.776;2022-08-01T01:12:44;5;5;
49778;PMS5003;36217;60.232;24.776;2022-08-01T01:15:17;4;4;
49778;PMS5003;36217;60.232;24.776;2022-08-01T01:17:51;6;6;
49778;PMS5003;36217;60.232;24.776;2022-08-01T01:20:23;3;3;
49778;PMS5003;36217;60.232;24.776;2022-08-01T01:22:58;3;3;
49778;PMS5003;36217;60.232;24.776;2022-08-01T01:26:03;6;6;
49778;PMS5003;36217;60.232;24.776;2022-08-01T01:31:33;6;6;
49778;PMS5003;36217;60.232;24.776;2022-08-01T01:34:06;4;4;
49778;PMS5003;36217;60.232;24.776;2022-08-01T01:36:35;3;3;
49778;PMS5003;36217;60.232;24.776;2022-08-01T01:39:05;5;5;
49778;PMS5003;36217;60.232;24.776;2022-08-01T01:41:32;5;5;
49778;PMS5003;36217;60.232;24.776;2022-08-01T01:44:03;5;5;
49778;PMS5003;36217;60.232;24.776;2022-08-01T01:46:31;5;5;
49778;PMS5003;36217;60.232;24.776;2022-08-01T01:48:59;6;5;
49778;PMS5003;36217;60.232;24.776;2022-08-01T01:51:28;5;5;
49778;PMS5003;36217;60.232;24.776;2022-08-01T01:53:56;5;5;
49778;PMS5003;36217;60.232;24.776;2022-08-01T01:56:26;6;5;
49778;PMS5003;36217;60.232;24.776;2022-08-01T01:58:55;7;6;
49778;PMS5003;36217;60.232;24.776;2022-08-01T02:01:27;4;4;
49778;PMS5003;36217;60.232;24.776;2022-08-01T02:03:57;4;4;
49778;PMS5003;36217;60.232;24.776;2022-08-01T02:06:25;7;5;
49778;PMS5003;36217;60.232;24.776;2022-08-01T02:08:54;4;4;
49778;PMS5003;36217;60.232;24.776;2022-08-01T02:11:22;5;5;
49778;PMS5003;36217;60.232;24.776;2022-08-01T02:13:52;5;5;
49778;PMS5003;36217;60.232;24.776;2022-08-01T02:16:23;5;5;
49778;PMS5003;36217;60.232;24.776;2022-08-01T02:18:52;8;8;
49778;PMS5003;36217;60.232;24.776;2022-08-01T02:21:21;4;4;
49778;PMS5003;36217;60.232;24.776;2022-08-01T02:23:53;5;5;
49778;PMS5003;36217;60.232;24.776;2022-08-01T02:26:26;5;5;
49778;PMS5003;36217;60.232;24.776;2022-08-01T02:28:55;5;5;
49778;PMS5003;36217;60.232;24.776;2022-08-01T02:31:25;5;5;
49778;PMS5003;36217;60.232;24.776;2022-08-01T02:33:58;4;4;
49778;PMS5003;36217;60.232;24.776;2022-08-01T02:36:30;4;4;
49778;PMS5003;36217;60.232;24.776;2022-08-01T02:39:00;4;4;
49778;PMS5003;36217;60.232;24.776;2022-08-01T02:41:33;3;3;
49778;PMS5003;36217;60.232;24.776;2022-08-01T02:44:05;5;5;
49778;PMS5003;36217;60.232;24.776;2022-08-01T02:46:36;5;5;
49778;PMS5003;36217;60.232;24.776;2022-08-01T02:49:05;4;4;
49778;PMS5003;36217;60.232;24.776;2022-08-01T02:51:35;4;4;
49778;PMS5003;36217;60.232;24.776;2022-08-01T02:54:04;4;4;
49778;PMS5003;36217;60.232;24.776;2022-08-01T02:56:34;4;4;
49778;PMS5003;36217;60.232;24.776;2022-08-01T02:59:04;3;3;
49778;PMS5003;36217;60.232;24.776;2022-08-01T03:01:34;4;4;
49778;PMS5003;36217;60.232;24.776;2022-08-01T03:04:02;4;4;
49778;PMS5003;36217;60.232;24.776;2022-08-01T03:06:31;4;4;
49778;PMS5003;36217;60.232;24.776;2022-08-01T03:08:58;6;4;
49778;PMS5003;36217;60.232;24.776;2022-08-01T03:11:28;5;5;
49778;PMS5003;36217;60.232;24.776;2022-08-01T03:13:56;5;5;
49778;PMS5003;36217;60.232;24.776;2022-08-01T03:16:27;4;4;
49778;PMS5003;36217;60.232;24.776;2022-08-01T03:18:56;6;6;
49778;PMS5003;36217;60.232;24.776;2022-08-01T03:21:25;4;4;
49778;PMS5003;36217;60.232;24.776;2022-08-01T03:23:54;4;4;
49778;PMS5003;36217;60.232;24.776;2022-08-01T03:26:24;4;4;
49778;PMS5003;36217;60.232;24.776;2022-08-01T03:28:55;6;5;
49778;PMS5003;36217;60.232;24.776;2022-08-01T03:31:25;4;4;
49778;PMS5003;36217;60.232;24.776;2022-08-01T03:33:54;4;4;
49778;PMS5003;36217;60.232;24.776;2022-08-01T03:36:22;6;6;
49778;PMS5003;36217;60.232;24.776;2022-08-01T03:38:52;4;4;
49778;PMS5003;36217;60.232;24.776;2022-08-01T03:41:22;7;7;
49778;PMS5003;36217;60.232;24.776;2022-08-01T03:43:55;5;5;
49778;PMS5003;36217;60.232;24.776;2022-08-01T03:46:26;5;5;
49778;PMS5003;36217;60.232;24.776;2022-08-01T03:48:58;4;4;
49778;PMS5003;36217;60.232;24.776;2022-08-01T03:51:28;5;5;
49778;PMS5003;36217;60.232;24.776;2022-08-01T03:53:57;4;4;
49778;PMS5003;36217;60.232;24.776;2022-08-01T03:56:27;4;3;
49778;PMS5003;36217;60.232;24.776;2022-08-01T03:58:56;6;5;
49778;PMS5003;36217;60.232;24.776;2022-08-01T04:01:23;5;5;
49778;PMS5003;36217;60.232;24.776;2022-08-01T04:03:50;5;5;
49778;PMS5003;36217;60.232;24.776;2022-08-01T04:06:17;3;3;
49778;PMS5003;36217;60.232;24.776;2022-08-01T04:08:44;5;5;
49778;PMS5003;36217;60.232;24.776;2022-08-01T04:11:11;7;7;
49778;PMS5003;36217;60.232;24.776;2022-08-01T04:13:38;5;5;
49778;PMS5003;36217;60.232;24.776;2022-08-01T04:16:05;6;6;
49778;PMS5003;36217;60.232;24.776;2022-08-01T04:18:32;8;8;
49778;PMS5003;36217;60.232;24.776;2022-08-01T04:20:58;7;7;
49778;PMS5003;36217;60.232;24.776;2022-08-01T04:23:25;5;4;
49778;PMS5003;36217;60.232;24.776;2022-08-01T04:25:54;7;7;
49778;PMS5003;36217;60.232;24.776;2022-08-01T04:28:23;6;6;
49778;PMS5003;36217;60.232;24.776;2022-08-01T04:30:53;7;6;
49778;PMS5003;36217;60.232;24.776;2022-08-01T04:33:22;6;6;
49778;PMS5003;36217;60.232;24.776;2022-08-01T04:35:51;6;6;
49778;PMS5003;36217;60.232;24.776;2022-08-01T04:38:20;6;6;
49778;PMS5003;36217;60.232;24.776;2022-08-01T04:40:49;6;6;
49778;PMS5003;36217;60.232;24.776;2022-08-01T04:43:18;6;6;
49778;PMS5003;36217;60.232;24.776;2022-08-01T04:45:45;4;4;
49778;PMS5003;36217;60.232;24.776;2022-08-01T04:48:15;4;4;
49778;PMS5003;36217;60.232;24.776;2022-08-01T04:50:44;4;4;
49778;PMS5003;36217;60.232;24.776;2022-08-01T04:53:12;4;4;
49778;PMS5003;36217;60.232;24.776;2022-08-01T04:55:40;4;4;
49778;PMS5003;36217;60.232;24.776;2022-08-01T04:58:07;4;4;
49778;PMS5003;36217;60.232;24.776;2022-08-01T05:00:35;2;2;
49778;PMS5003;36217;60.232;24.776;2022-08-01T05:03:02;6;6;
49778;PMS5003;36217;60.232;24.776;2022-08-01T05:05:29;2;2;
49778;PMS5003;36217;60.232;24.776;2022-08-01T05:07:56;2;2;
49778;PMS5003;36217;60.232;24.776;2022-08-01T05:10:22;5;3;
49778;PMS5003;36217;60.232;24.776;2022-08-01T05:12:49;2;2;
49778;PMS5003;36217;60.232;24.776;2022-08-01T05:15:16;1;1;
49778;PMS5003;36217;60.232;24.776;2022-08-01T05:17:43;3;1;
49778;PMS5003;36217;60.232;24.776;2022-08-01T05:20:10;2;2;
49778;PMS5003;36217;60.232;24.776;2022-08-01T05:22:37;3;3;
49778;PMS5003;36217;60.232;24.776;2022-08-01T05:25:05;4;3;
49778;PMS5003;36217;60.232;24.776;2022-08-01T05:27:32;4;3;
49778;PMS5003;36217;60.232;24.776;2022-08-01T05:29:58;3;3;
49778;PMS5003;36217;60.232;24.776;2022-08-01T05:32:25;2;2;
49778;PMS5003;36217;60.232;24.776;2022-08-01T05:34:52;4;3;
49778;PMS5003;36217;60.232;24.776;2022-08-01T05:37:19;4;4;
49778;PMS5003;36217;60.232;24.776;2022-08-01T05:39:46;3;3;
49778;PMS5003;36217;60.232;24.776;2022-08-01T05:42:12;2;2;
49778;PMS5003;36217;60.232;24.776;2022-08-01T05:44:39;3;3;
49778;PMS5003;36217;60.232;24.776;2022-08-01T05:47:06;4;2;
49778;PMS5003;36217;60.232;24.776;2022-08-01T05:49:33;3;3;
49778;PMS5003;36217;60.232;24.776;2022-08-01T05:52:00;3;3;
49778;PMS5003;36217;60.232;24.776;2022-08-01T05:54:26;3;3;
49778;PMS5003;36217;60.232;24.776;2022-08-01T05:56:53;5;3;
49778;PMS5003;36217;60.232;24.776;2022-08-01T05:59:20;3;3;
49778;PMS5003;36217;60.232;24.776;2022-08-01T06:01:47;3;3;
49778;PMS5003;36217;60.232;24.776;2022-08-01T06:04:13;2;2;
49778;PMS5003;36217;60.232;24.776;2022-08-01T06:06:40;3;3;
49778;PMS5003;36217;60.232;24.776;2022-08-01T06:09:07;2;2;
49778;PMS5003;36217;60.232;24.776;2022-08-01T06:11:34;2;2;
49778;PMS5003;36217;60.232;24.776;2022-08-01T06:14:01;4;3;
49778;PMS5003;36217;60.232;24.776;2022-08-01T06:16:27;3;3;
49778;PMS5003;36217;60.232;24.776;2022-08-01T06:18:54;2;2;
49778;PMS5003;36217;60.232;24.776;2022-08-01T06:21:21;2;2;
49778;PMS5003;36217;60.232;24.776;2022-08-01T06:23:48;3;3;
49778;PMS5003;36217;60.232;24.776;2022-08-01T06:26:17;5;5;
49778;PMS5003;36217;60.232;24.776;2022-08-01T06:28:45;3;2;
49778;PMS5003;36217;60.232;24.776;2022-08-01T06:31:12;3;3;
49778;PMS5003;36217;60.232;24.776;2022-08-01T06:33:38;2;2;
49778;PMS5003;36217;60.232;24.776;2022-08-01T06:36:05;4;2;
49778;PMS5003;36217;60.232;24.776;2022-08-01T06:38:32;2;2;
49778;PMS5003;36217;60.232;24.776;2022-08-01T06:40:59;2;2;
49778;PMS5003;36217;60.232;24.776;2022-08-01T06:43:25;2;2;
49778;PMS5003;36217;60.232;24.776;2022-08-01T06:45:52;1;1;
49778;PMS5003;36217;60.232;24.776;2022-08-01T06:48:19;3;3;
49778;PMS5003;36217;60.232;24.776;2022-08-01T06:50:46;4;4;
49778;PMS5003;36217;60.232;24.776;2022-08-01T06:53:12;4;3;
49778;PMS5003;36217;60.232;24.776;2022-08-01T06:55:39;2;2;
49778;PMS5003;36217;60.232;24.776;2022-08-01T06:58:06;4;2;
49778;PMS5003;36217;60.232;24.776;2022-08-01T07:00:33;2;2;
49778;PMS5003;36217;60.232;24.776;2022-08-01T07:03:00;2;2;
49778;PMS5003;36217;60.232;24.776;2022-08-01T07:05:26;2;2;
49778;PMS5003;36217;60.232;24.776;2022-08-01T07:07:54;2;2;
49778;PMS5003;36217;60.232;24.776;2022-08-01T07:10:21;0;0;
49778;PMS5003;36217;60.232;24.776;2022-08-01T07:12:47;2;2;
49778;PMS5003;36217;60.232;24.776;2022-08-01T07:15:14;3;3;
49778;PMS5003;36217;60.232;24.776;2022-08-01T07:17:41;2;2;
49778;PMS5003;36217;60.232;24.776;2022-08-01T07:20:09;2;2;
49778;PMS5003;36217;60.232;24.776;2022-08-01T07:22:38;1;1;
49778;PMS5003;36217;60.232;24.776;2022-08-01T07:25:05;3;3;
49778;PMS5003;36217;60.232;24.776;2022-08-01T07:27:33;3;3;
49778;PMS5003;36217;60.232;24.776;2022-08-01T07:30:03;5;3;
49778;PMS5003;36217;60.232;24.776;2022-08-01T07:32:31;1;1;
49778;PMS5003;36217;60.232;24.776;2022-08-01T07:34:58;3;3;
49778;PMS5003;36217;60.232;24.776;2022-08-01T07:37:25;3;3;
49778;PMS5003;36217;60.232;24.776;2022-08-01T07:39:52;3;3;
49778;PMS5003;36217;60.232;24.776;2022-08-01T07:42:18;3;3;
49778;PMS5003;36217;60.232;24.776;2022-08-01T07:44:45;3;3;
49778;PMS5003;36217;60.232;24.776;2022-08-01T07:47:12;3;3;
49778;PMS5003;36217;60.232;24.776;2022-08-01T07:49:39;3;3;
49778;PMS5003;36217;60.232;24.776;2022-08-01T07:52:06;3;3;
49778;PMS5003;36217;60.232;24.776;2022-08-01T07:54:33;1;1;
49778;PMS5003;36217;60.232;24.776;2022-08-01T07:57:00;3;3;
49778;PMS5003;36217;60.232;24.776;2022-08-01T07:59:27;0;0;
49778;PMS5003;36217;60.232;24.776;2022-08-01T08:01:54;2;2;
49778;PMS5003;36217;60.232;24.776;2022-08-01T08:04:21;1;1;
49778;PMS5003;36217;60.232;24.776;2022-08-01T08:06:48;5;3;
49778;PMS5003;36217;60.232;24.776;2022-08-01T08:09:15;2;2;
49778;PMS5003;36217;60.232;24.776;2022-08-01T08:11:42;2;2;
49778;PMS5003;36217;60.232;24.776;2022-08-01T08:14:09;4;4;
49778;PMS5003;36217;60.232;24.776;2022-08-01T08:16:36;3;3;
49778;PMS5003;36217;60.232;24.776;2022-08-01T08:19:03;1;1;
49778;PMS5003;36217;60.232;24.776;2022-08-01T08:21:30;3;3;
49778;PMS5003;36217;60.232;24.776;2022-08-01T08:23:57;2;2;
49778;PMS5003;36217;60.232;24.776;2022-08-01T08:26:24;2;0;
49778;PMS5003;36217;60.232;24.776;2022-08-01T08:28:50;2;2;
49778;PMS5003;36217;60.232;24.776;2022-08-01T08:31:17;3;3;
49778;PMS5003;36217;60.232;24.776;2022-08-01T08:33:44;3;3;
49778;PMS5003;36217;60.232;24.776;2022-08-01T08:36:11;3;3;
49778;PMS5003;36217;60.232;24.776;2022-08-01T08:38:39;3;3;
49778;PMS5003;36217;60.232;24.776;2022-08-01T08:41:06;3;3;
49778;PMS5003;36217;60.232;24.776;2022-08-01T08:43:34;4;4;
49778;PMS5003;36217;60.232;24.776;2022-08-01T08:46:01;2;2;
49778;PMS5003;36217;60.232;24.776;2022-08-01T08:48:29;3;3;
49778;PMS5003;36217;60.232;24.776;2022-08-01T08:50:56;2;2;
49778;PMS5003;36217;60.232;24.776;2022-08-01T08:53:26;2;2;
49778;PMS5003;36217;60.232;24.776;2022-08-01T08:55:54;3;3;
49778;PMS5003;36217;60.232;24.776;2022-08-01T08:58:23;2;2;
49778;PMS5003;36217;60.232;24.776;2022-08-01T09:00:52;1;1;
49778;PMS5003;36217;60.232;24.776;2022-08-01T09:03:20;4;4;
49778;PMS5003;36217;60.232;24.776;2022-08-01T09:05:47;3;3;
49778;PMS5003;36217;60.232;24.776;2022-08-01T09:08:13;2;2;
49778;PMS5003;36217;60.232;24.776;2022-08-01T09:10:40;3;3;
49778;PMS5003;36217;60.232;24.776;2022-08-01T09:13:08;2;2;
49778;PMS5003;36217;60.232;24.776;2022-08-01T09:15:38;2;2;
49778;PMS5003;36217;60.232;24.776;2022-08-01T09:18:06;1;1;
49778;PMS5003;36217;60.232;24.776;2022-08-01T09:20:33;4;3;
49778;PMS5003;36217;60.232;24.776;2022-08-01T09:23:00;2;2;
49778;PMS5003;36217;60.232;24.776;2022-08-01T09:25:28;4;4;
49778;PMS5003;36217;60.232;24.776;2022-08-01T09:28:01;3;3;
49778;PMS5003;36217;60.232;24.776;2022-08-01T09:30:30;2;2;
49778;PMS5003;36217;60.232;24.776;2022-08-01T09:33:05;3;3;
49778;PMS5003;36217;60.232;24.776;2022-08-01T09:35:33;3;3;
49778;PMS5003;36217;60.232;24.776;2022-08-01T09:38:16;0;0;
49778;PMS5003;36217;60.232;24.776;2022-08-01T09:40:46;4;4;
49778;PMS5003;36217;60.232;24.776;2022-08-01T09:43:16;3;3;
49778;PMS5003;36217;60.232;24.776;2022-08-01T09:45:42;1;1;
49778;PMS5003;36217;60.232;24.776;2022-08-01T09:48:09;3;3;
49778;PMS5003;36217;60.232;24.776;2022-08-01T09:50:39;2;2;
49778;PMS5003;36217;60.232;24.776;2022-08-01T09:53:06;3;3;
49778;PMS5003;36217;60.232;24.776;2022-08-01T09:55:33;3;3;
49778;PMS5003;36217;60.232;24.776;2022-08-01T09:58:00;2;2;
49778;PMS5003;36217;60.232;24.776;2022-08-01T10:00:27;2;2;
49778;PMS5003;36217;60.232;24.776;2022-08-01T10:02:54;2;2;
49778;PMS5003;36217;60.232;24.776;2022-08-01T10:05:29;6;6;
49778;PMS5003;36217;60.232;24.776;2022-08-01T10:07:58;4;4;
49778;PMS5003;36217;60.232;24.776;2022-08-01T10:10:26;4;4;
49778;PMS5003;36217;60.232;24.776;2022-08-01T10:12:52;4;4;
49778;PMS5003;36217;60.232;24.776;2022-08-01T10:15:22;5;5;
49778;PMS5003;36217;60.232;24.776;2022-08-01T10:17:53;4;3;
49778;PMS5003;36217;60.232;24.776;2022-08-01T10:20:23;3;2;
49778;PMS5003;36217;60.232;24.776;2022-08-01T10:22:52;3;2;
49778;PMS5003;36217;60.232;24.776;2022-08-01T10:25:21;6;2;
49778;PMS5003;36217;60.232;24.776;2022-08-01T10:27:48;3;3;
49778;PMS5003;36217;60.232;24.776;2022-08-01T10:30:15;2;2;
49778;PMS5003;36217;60.232;24.776;2022-08-01T10:32:42;3;3;
49778;PMS5003;36217;60.232;24.776;2022-08-01T10:35:12;4;3;
49778;PMS5003;36217;60.232;24.776;2022-08-01T10:37:40;5;5;
49778;PMS5003;36217;60.232;24.776;2022-08-01T10:40:08;3;3;
49778;PMS5003;36217;60.232;24.776;2022-08-01T10:42:38;3;3;
49778;PMS5003;36217;60.232;24.776;2022-08-01T10:45:06;2;2;
49778;PMS5003;36217;60.232;24.776;2022-08-01T10:47:40;3;3;
49778;PMS5003;36217;60.232;24.776;2022-08-01T10:50:15;1;1;
49778;PMS5003;36217;60.232;24.776;2022-08-01T10:53:03;3;2;
49778;PMS5003;36217;60.232;24.776;2022-08-01T10:55:44;4;4;
49778;PMS5003;36217;60.232;24.776;2022-08-01T10:58:12;4;4;
49778;PMS5003;36217;60.232;24.776;2022-08-01T11:00:39;5;4;
49778;PMS5003;36217;60.232;24.776;2022-08-01T11:03:06;4;4;
49778;PMS5003;36217;60.232;24.776;2022-08-01T11:05:33;4;4;
49778;PMS5003;36217;60.232;24.776;2022-08-01T11:08:03;7;5;
49778;PMS5003;36217;60.232;24.776;2022-08-01T11:10:33;6;5;
49778;PMS5003;36217;60.232;24.776;2022-08-01T11:13:03;12;12;
49778;PMS5003;36217;60.232;24.776;2022-08-01T11:15:31;6;6;
49778;PMS5003;36217;60.232;24.776;2022-08-01T11:17:58;6;5;
49778;PMS5003;36217;60.232;24.776;2022-08-01T11:20:26;6;6;
49778;PMS5003;36217;60.232;24.776;2022-08-01T11:23:15;6;5;
49778;PMS5003;36217;60.232;24.776;2022-08-01T11:26:15;6;6;
49778;PMS5003;36217;60.232;24.776;2022-08-01T11:28:43;6;6;
49778;PMS5003;36217;60.232;24.776;2022-08-01T11:31:28;4;4;
49778;PMS5003;36217;60.232;24.776;2022-08-01T11:33:56;5;4;
49778;PMS5003;36217;60.232;24.776;2022-08-01T11:36:24;4;4;
49778;PMS5003;36217;60.232;24.776;2022-08-01T11:39:23;8;6;
49778;PMS5003;36217;60.232;24.776;2022-08-01T11:41:51;7;5;
49778;PMS5003;36217;60.232;24.776;2022-08-01T11:44:18;6;5;
49778;PMS5003;36217;60.232;24.776;2022-08-01T11:46:49;3;3;
49778;PMS5003;36217;60.232;24.776;2022-08-01T11:49:27;7;5;
49778;PMS5003;36217;60.232;24.776;2022-08-01T11:51:56;6;6;
49778;PMS5003;36217;60.232;24.776;2022-08-01T11:54:27;7;6;
49778;PMS5003;36217;60.232;24.776;2022-08-01T11:56:55;7;7;
49778;PMS5003;36217;60.232;24.776;2022-08-01T11:59:23;4;4;
49778;PMS5003;36217;60.232;24.776;2022-08-01T12:01:50;8;7;
49778;PMS5003;36217;60.232;24.776;2022-08-01T12:04:17;8;8;
49778;PMS5003;36217;60.232;24.776;2022-08-01T12:06:44;5;5;
49778;PMS5003;36217;60.232;24.776;2022-08-01T12:09:15;6;6;
49778;PMS5003;36217;60.232;24.776;2022-08-01T12:11:43;5;5;
49778;PMS5003;36217;60.232;24.776;2022-08-01T12:14:15;8;8;
49778;PMS5003;36217;60.232;24.776;2022-08-01T12:16:47;4;4;
49778;PMS5003;36217;60.232;24.776;2022-08-01T12:19:19;7;7;
49778;PMS5003;36217;60.232;24.776;2022-08-01T12:22:21;5;5;
49778;PMS5003;36217;60.232;24.776;2022-08-01T12:24:50;7;7;
49778;PMS5003;36217;60.232;24.776;2022-08-01T12:27:23;5;5;
49778;PMS5003;36217;60.232;24.776;2022-08-01T12:29:51;6;6;
49778;PMS5003;36217;60.232;24.776;2022-08-01T12:32:26;6;6;
49778;PMS5003;36217;60.232;24.776;2022-08-01T12:34:54;7;7;
49778;PMS5003;36217;60.232;24.776;2022-08-01T12:37:22;6;6;
49778;PMS5003;36217;60.232;24.776;2022-08-01T12:39:49;5;5;
49778;PMS5003;36217;60.232;24.776;2022-08-01T12:42:16;7;7;
49778;PMS5003;36217;60.232;24.776;2022-08-01T12:44:44;5;5;
49778;PMS5003;36217;60.232;24.776;2022-08-01T12:47:14;7;7;
49778;PMS5003;36217;60.232;24.776;2022-08-01T12:49:43;7;7;
49778;PMS5003;36217;60.232;24.776;2022-08-01T12:52:10;5;5;
49778;PMS5003;36217;60.232;24.776;2022-08-01T12:55:11;7;7;
49778;PMS5003;36217;60.232;24.776;2022-08-01T12:57:40;5;5;
49778;PMS5003;36217;60.232;24.776;2022-08-01T13:00:13;4;4;
49778;PMS5003;36217;60.232;24.776;2022-08-01T13:02:42;5;4;
49778;PMS5003;36217;60.232;24.776;2022-08-01T13:05:11;4;4;
49778;PMS5003;36217;60.232;24.776;2022-08-01T13:07:41;2;2;
49778;PMS5003;36217;60.232;24.776;2022-08-01T13:10:12;2;2;
49778;PMS5003;36217;60.232;24.776;2022-08-01T13:12:41;2;2;
49778;PMS5003;36217;60.232;24.776;2022-08-01T13:15:19;6;6;
49778;PMS5003;36217;60.232;24.776;2022-08-01T13:17:48;2;2;
49778;PMS5003;36217;60.232;24.776;2022-08-01T13:20:32;2;2;
49778;PMS5003;36217;60.232;24.776;2022-08-01T13:23:16;1;1;
49778;PMS5003;36217;60.232;24.776;2022-08-01T13:25:48;2;2;
49778;PMS5003;36217;60.232;24.776;2022-08-01T13:28:18;4;1;
49778;PMS5003;36217;60.232;24.776;2022-08-01T13:30:54;1;1;
49778;PMS5003;36217;60.232;24.776;2022-08-01T13:33:24;2;2;
49778;PMS5003;36217;60.232;24.776;2022-08-01T13:35:51;2;2;
49778;PMS5003;36217;60.232;24.776;2022-08-01T13:38:19;2;2;
49778;PMS5003;36217;60.232;24.776;2022-08-01T13:40:46;1;1;
49778;PMS5003;36217;60.232;24.776;2022-08-01T13:43:13;4;2;
49778;PMS5003;36217;60.232;24.776;2022-08-01T13:45:40;1;1;
49778;PMS5003;36217;60.232;24.776;2022-08-01T13:48:07;3;3;
49778;PMS5003;36217;60.232;24.776;2022-08-01T13:50:34;1;1;
49778;PMS5003;36217;60.232;24.776;2022-08-01T13:53:01;2;2;
49778;PMS5003;36217;60.232;24.776;2022-08-01T13:55:28;2;2;
49778;PMS5003;36217;60.232;24.776;2022-08-01T13:57:54;1;1;
49778;PMS5003;36217;60.232;24.776;2022-08-01T14:00:21;3;3;
49778;PMS5003;36217;60.232;24.776;2022-08-01T14:02:48;1;1;
49778;PMS5003;36217;60.232;24.776;2022-08-01T14:05:15;2;2;
49778;PMS5003;36217;60.232;24.776;2022-08-01T14:07:42;1;1;
49778;PMS5003;36217;60.232;24.776;2022-08-01T14:10:08;1;1;
49778;PMS5003;36217;60.232;24.776;2022-08-01T14:12:35;2;2;
49778;PMS5003;36217;60.232;24.776;2022-08-01T14:15:02;1;1;
49778;PMS5003;36217;60.232;24.776;2022-08-01T14:17:30;2;2;
49778;PMS5003;36217;60.232;24.776;2022-08-01T14:19:56;1;1;
49778;PMS5003;36217;60.232;24.776;2022-08-01T14:22:23;3;3;
49778;PMS5003;36217;60.232;24.776;2022-08-01T14:24:50;0;0;
49778;PMS5003;36217;60.232;24.776;2022-08-01T14:27:17;3;3;
49778;PMS5003;36217;60.232;24.776;2022-08-01T14:29:43;4;4;
49778;PMS5003;36217;60.232;24.776;2022-08-01T14:32:10;4;4;
49778;PMS5003;36217;60.232;24.776;2022-08-01T14:34:37;3;3;
49778;PMS5003;36217;60.232;24.776;2022-08-01T14:37:04;2;2;
49778;PMS5003;36217;60.232;24.776;2022-08-01T14:39:31;3;3;
49778;PMS5003;36217;60.232;24.776;2022-08-01T14:41:57;2;2;
49778;PMS5003;36217;60.232;24.776;2022-08-01T14:44:24;2;2;
49778;PMS5003;36217;60.232;24.776;2022-08-01T14:46:51;2;2;
49778;PMS5003;36217;60.232;24.776;2022-08-01T14:49:18;2;2;
49778;PMS5003;36217;60.232;24.776;2022-08-01T14:51:44;2;2;
49778;PMS5003;36217;60.232;24.776;2022-08-01T14:54:11;1;1;
49778;PMS5003;36217;60.232;24.776;2022-08-01T14:56:38;2;2;
49778;PMS5003;36217;60.232;24.776;2022-08-01T14:59:05;3;1;
49778;PMS5003;36217;60.232;24.776;2022-08-01T15:01:32;1;1;
49778;PMS5003;36217;60.232;24.776;2022-08-01T15:03:58;2;2;
49778;PMS5003;36217;60.232;24.776;2022-08-01T15:06:25;3;2;
49778;PMS5003;36217;60.232;24.776;2022-08-01T15:08:52;4;2;
49778;PMS5003;36217;60.232;24.776;2022-08-01T15:11:19;1;1;
49778;PMS5003;36217;60.232;24.776;2022-08-01T15:13:45;0;0;
49778;PMS5003;36217;60.232;24.776;2022-08-01T15:16:12;3;2;
49778;PMS5003;36217;60.232;24.776;2022-08-01T15:18:39;2;2;
49778;PMS5003;36217;60.232;24.776;2022-08-01T15:21:06;3;3;
49778;PMS5003;36217;60.232;24.776;2022-08-01T15:23:32;2;2;
49778;PMS5003;36217;60.232;24.776;2022-08-01T15:25:59;6;5;
49778;PMS5003;36217;60.232;24.776;2022-08-01T15:28:26;2;2;
49778;PMS5003;36217;60.232;24.776;2022-08-01T15:30:53;2;2;
49778;PMS5003;36217;60.232;24.776;2022-08-01T15:33:20;2;2;
49778;PMS5003;36217;60.232;24.776;2022-08-01T15:35:47;1;1;
49778;PMS5003;36217;60.232;24.776;2022-08-01T15:38:13;2;2;
49778;PMS5003;36217;60.232;24.776;2022-08-01T15:40:40;2;2;
49778;PMS5003;36217;60.232;24.776;2022-08-01T15:43:07;1;1;
49778;PMS5003;36217;60.232;24.776;2022-08-01T15:45:34;2;2;
49778;PMS5003;36217;60.232;24.776;2022-08-01T15:48:00;2;2;
49778;PMS5003;36217;60.232;24.776;2022-08-01T15:50:27;1;1;
49778;PMS5003;36217;60.232;24.776;2022-08-01T15:52:54;1;1;
49778;PMS5003;36217;60.232;24.776;2022-08-01T15:55:21;0;0;
49778;PMS5003;36217;60.232;24.776;2022-08-01T15:57:48;2;2;
49778;PMS5003;36217;60.232;24.776;2022-08-01T16:00:14;3;3;
49778;PMS5003;36217;60.232;24.776;2022-08-01T16:02:41;1;1;
49778;PMS5003;36217;60.232;24.776;2022-08-01T16:05:08;2;2;
49778;PMS5003;36217;60.232;24.776;2022-08-01T16:07:35;1;1;
49778;PMS5003;36217;60.232;24.776;2022-08-01T16:10:02;2;2;
49778;PMS5003;36217;60.232;24.776;2022-08-01T16:12:29;2;2;
49778;PMS5003;36217;60.232;24.776;2022-08-01T16:14:56;1;1;
49778;PMS5003;36217;60.232;24.776;2022-08-01T16:17:23;1;1;
49778;PMS5003;36217;60.232;24.776;2022-08-01T16:19:49;1;1;
49778;PMS5003;36217;60.232;24.776;2022-08-01T16:22:16;2;2;
49778;PMS5003;36217;60.232;24.776;2022-08-01T16:24:44;2;2;
49778;PMS5003;36217;60.232;24.776;2022-08-01T16:27:11;2;2;
49778;PMS5003;36217;60.232;24.776;2022-08-01T16:29:37;2;2;
49778;PMS5003;36217;60.232;24.776;2022-08-01T16:32:04;3;3;
49778;PMS5003;36217;60.232;24.776;2022-08-01T16:34:32;1;1;
49778;PMS5003;36217;60.232;24.776;2022-08-01T16:36:59;1;1;
49778;PMS5003;36217;60.232;24.776;2022-08-01T16:39:25;2;2;
49778;PMS5003;36217;60.232;24.776;2022-08-01T16:41:52;2;1;
49778;PMS5003;36217;60.232;24.776;2022-08-01T16:44:19;2;2;
49778;PMS5003;36217;60.232;24.776;2022-08-01T16:46:46;3;2;